AKDT,Max TemperatureF,Mean TemperatureF,Min TemperatureF,Max Dew PointF,MeanDew PointF,Min DewpointF,Max Humidity, Mean Humidity, Min Humidity, Max Sea Level PressureIn, Mean Sea Level PressureIn, Min Sea Level PressureIn, Max VisibilityMiles, Mean VisibilityMiles, Min VisibilityMiles, Max Wind SpeedMPH, Mean Wind SpeedMPH, Max Gust SpeedMPH,PrecipitationIn, CloudCover, Events, WindDirDegrees
2014-3-1,37,34,32,32,29,27,89,81,73,30.01,29.97,29.94,10,10,8,21,10,29,0.00,3,,357
2014-3-2,37,32,28,31,27,23,89,80,72,29.94,29.86,29.83,10,10,10,9,6,,0.00,3,,292
2014-3-3,37,34,30,28,26,24,82,74,62,29.86,29.83,29.81,10,10,10,7,3,,0.00,8,,323
2014-3-4,36,34,32,32,30,27,96,87,75,29.87,29.85,29.81,10,6,1,20,5,22,0.01,8,Snow,187
2014-3-5,37,34,30,33,30,23,93,83,66,29.80,29.70,29.63,10,8,1,16,9,22,0.01,7,Snow,200
2014-3-6,36,31,26,24,20,17,78,64,48,29.69,29.65,29.63,10,10,10,18,12,26,0.00,1,,357
2014-3-7,39,32,24,18,16,9,72,58,43,29.69,29.46,29.17,10,10,10,30,12,52,0.00,2,,4
2014-3-8,33,26,19,9,5,2,57,41,31,29.16,29.05,28.96,10,10,10,32,24,40,0.00,0,,2
2014-3-9,37,28,19,29,13,2,78,51,27,29.45,29.25,29.04,10,10,8,25,15,37,0.00,3,,41
2014-3-10,37,35,33,34,31,27,96,89,70,29.47,29.23,28.95,10,4,1,20,9,36,1.29,8,Rain-Snow,252
2014-3-11,39,36,33,37,34,32,97,90,82,29.20,29.06,29.00,10,7,2,20,7,31,0.62,8,Rain-Snow,163
2014-3-12,37,34,32,33,28,18,92,78,54,29.63,29.42,29.20,10,6,1,23,10,33,0.02,8,Rain-Snow,166
2014-3-13,42,38,35,35,33,30,89,83,70,29.41,29.19,29.04,10,9,5,12,7,17,0.19,8,Rain,328
2014-3-14,39,34,28,34,29,14,93,80,54,29.51,29.11,28.92,10,7,1,29,12,38,0.26,8,Rain-Snow,188
2014-3-15,30,24,19,17,11,7,78,54,40,29.77,29.68,29.55,10,10,9,15,9,24,0.00,5,Snow,350
2014-3-16,33,24,19,25,20,8,89,78,55,29.72,29.68,29.62,10,5,0,21,8,29,0.00,8,Fog-Snow,328
2014-3-17,39,36,30,29,25,21,88,67,50,29.70,29.62,29.57,10,10,2,10,7,,0.00,8,Snow,333
2014-3-18,43,34,27,28,23,20,92,66,51,29.91,29.80,29.71,10,10,10,24,9,34,0.00,3,,346
2014-3-19,41,36,30,19,15,13,50,42,33,30.19,30.05,29.91,10,10,10,23,17,39,0.00,0,,351
2014-3-20,42,31,21,22,16,12,68,52,31,30.26,30.23,30.19,10,10,10,13,9,17,0.00,0,,2
2014-3-21,46,39,33,20,18,15,56,45,31,30.31,30.27,30.24,10,10,10,13,9,,0.00,4,,356
2014-3-22,42,34,26,24,18,13,69,54,33,30.47,30.38,30.32,10,10,10,14,10,21,0.00,0,,7
2014-3-23,41,30,21,21,15,8,72,56,27,30.48,30.42,30.35,10,10,9,12,7,,0.00,0,,339
2014-3-24,42,30,19,19,13,10,74,50,29,30.34,30.14,29.91,10,10,10,9,7,,0.00,0,,343
2014-3-25,48,37,26,28,14,6,66,44,18,29.90,29.79,29.69,10,10,10,14,10,22,0.00,0,,13
2014-3-26,45,36,28,27,18,11,69,52,26,29.78,29.72,29.69,10,10,10,13,10,,0.00,1,,4
2014-3-27,42,34,25,23,17,11,75,55,29,29.84,29.80,29.78,10,10,9,12,7,,0.00,0,,345
2014-3-28,42,32,24,25,18,15,72,58,40,29.85,29.79,29.71,10,10,8,10,6,,0.00,0,,333
2014-3-29,46,36,26,23,15,10,64,47,23,29.84,29.73,29.70,10,10,10,17,11,25,0.00,0,,13
2014-3-30,46,37,28,14,11,9,51,35,22,30.02,29.94,29.85,10,10,10,22,14,30,0.00,0,,1
2014-3-31,46,36,27,26,15,10,69,45,23,30.08,30.04,29.99,10,10,10,15,11,22,0.00,0,,12